Time;durP1;ratioP1;P1;durP2;ratioP2;P2;SDS_P1;SDS_P2;PMS_P1;PMS_P2;Temp;Humidity;BMP_temperature;BMP_pressure;BME280_temperature;BME280_humidity;BME280_pressure;Samples;Min_cycle;Max_cycle;Signal;HPM_P1;HPM_P2
2022/12/16 01:57:37;;;;;;;29.40;20.30;;;;;;;0.35;100.00;98085.19;6255433;22;20288;-81
2022/12/16 02:00:05;;;;;;;31.70;21.07;;;;;;;0.36;100.00;98074.47;6232901;23;20212;-80
2022/12/16 02:02:40;;;;;;;35.77;22.43;;;;;;;0.27;100.00;98059.81;6236359;23;20208;-81
2022/12/16 02:05:19;;;;;;;36.03;23.67;;;;;;;0.33;100.00;98053.75;6211797;23;20269;-79
2022/12/16 02:08:05;;;;;;;34.37;22.97;;;;;;;0.35;100.00;98025.41;6233164;23;20204;-79
2022/12/16 02:10:42;;;;;;;35.03;22.77;;;;;;;0.33;100.00;98016.06;6209128;23;20222;-79
2022/12/16 02:13:34;;;;;;;35.83;23.00;;;;;;;0.41;100.00;98029.09;6232454;23;20208;-81
2022/12/16 02:16:14;;;;;;;33.87;23.23;;;;;;;0.35;100.00;98038.59;6232553;23;20204;-81
2022/12/16 02:19:04;;;;;;;33.73;23.30;;;;;;;0.37;100.00;98052.34;6209486;23;20204;-81
2022/12/16 02:21:37;;;;;;;34.57;23.53;;;;;;;0.38;100.00;98059.25;6260486;23;20210;-81
2022/12/16 02:24:16;;;;;;;30.13;21.83;;;;;;;0.37;100.00;98070.81;6233452;23;20205;-81
2022/12/16 02:26:56;;;;;;;30.87;21.30;;;;;;;0.39;100.00;98067.97;6231658;23;20737;-81
2022/12/16 02:30:00;;;;;;;28.20;20.57;;;;;;;0.49;100.00;98072.91;6233593;23;20211;-81
2022/12/16 02:32:27;;;;;;;26.43;18.27;;;;;;;0.60;100.00;98070.56;6233302;23;20200;-81
2022/12/16 02:35:15;;;;;;;22.73;16.43;;;;;;;0.63;100.00;98075.44;6260646;23;20212;-81
2022/12/16 02:38:05;;;;;;;20.30;15.90;;;;;;;0.59;100.00;98068.94;6235917;23;20209;-79
2022/12/16 02:40:40;;;;;;;16.07;13.17;;;;;;;0.59;100.00;98061.03;6211556;23;20227;-79
2022/12/16 02:43:21;;;;;;;19.93;14.20;;;;;;;0.59;100.00;98052.31;6208621;23;20261;-79
2022/12/16 02:45:49;;;;;;;16.97;13.13;;;;;;;0.62;100.00;98042.16;6206508;23;20208;-81
2022/12/16 02:48:16;;;;;;;16.43;12.63;;;;;;;0.67;100.00;98044.22;6155873;23;20233;-81
2022/12/16 02:50:48;;;;;;;14.67;11.67;;;;;;;0.61;100.00;98031.81;6205313;23;20209;-81
2022/12/16 02:53:15;;;;;;;15.17;11.70;;;;;;;0.60;100.00;98038.94;6179309;23;20205;-81
2022/12/16 02:55:59;;;;;;;15.63;11.70;;;;;;;0.57;100.00;98033.22;6229234;23;20213;-80
2022/12/16 02:58:51;;;;;;;16.70;12.70;;;;;;;0.64;100.00;98036.72;6202377;23;20197;-81
2022/12/16 03:01:27;;;;;;;15.47;13.00;;;;;;;0.73;100.00;98043.47;6202805;23;20197;-81
2022/12/16 03:04:01;;;;;;;15.03;12.87;;;;;;;0.69;100.00;98021.94;6204752;23;20215;-81
2022/12/16 03:06:31;;;;;;;15.73;12.93;;;;;;;0.69;100.00;98002.69;6204536;23;20225;-81
2022/12/16 03:09:00;;;;;;;14.77;13.00;;;;;;;0.69;100.00;98002.69;6181405;23;20216;-81
2022/12/16 03:11:29;;;;;;;16.07;12.53;;;;;;;0.76;100.00;98000.88;6181742;23;20213;-81
2022/12/16 03:13:56;;;;;;;14.93;12.27;;;;;;;0.78;100.00;97980.41;6233668;23;20216;-81
2022/12/16 03:16:29;;;;;;;13.73;11.50;;;;;;;0.74;100.00;97966.81;6205100;23;20867;-81
2022/12/16 03:19:03;;;;;;;14.27;12.23;;;;;;;0.72;100.00;97965.38;6229689;23;20214;-81
2022/12/16 03:21:36;;;;;;;14.10;11.83;;;;;;;0.71;100.00;97953.19;6179263;23;20205;-81
2022/12/16 03:24:06;;;;;;;12.13;10.67;;;;;;;0.74;100.00;97953.63;6226639;23;20209;-80
2022/12/16 03:26:38;;;;;;;14.07;11.10;;;;;;;0.79;100.00;97940.66;6203178;23;20209;-81
2022/12/16 03:29:32;;;;;;;12.13;10.77;;;;;;;0.75;100.00;97939.41;6203994;23;20212;-81
2022/12/16 03:32:06;;;;;;;12.03;10.57;;;;;;;0.70;100.00;97936.56;6229721;23;20289;-81
2022/12/16 03:34:41;;;;;;;14.43;11.50;;;;;;;0.89;100.00;97935.81;6203196;23;20209;-81
2022/12/16 03:37:10;;;;;;;12.27;10.60;;;;;;;0.93;100.00;97917.78;6178628;23;20220;-81
2022/12/16 03:39:41;;;;;;;12.07;10.67;;;;;;;0.77;100.00;97931.31;6206468;23;20209;-81
2022/12/16 03:42:09;;;;;;;12.77;10.17;;;;;;;0.74;100.00;97914.09;6183648;23;20205;-81
2022/12/16 03:44:36;;;;;;;10.53;9.43;;;;;;;0.74;100.00;97905.38;6183974;23;20201;-81
2022/12/16 03:47:04;;;;;;;10.67;9.57;;;;;;;0.74;100.00;97894.81;6183866;23;20210;-81
2022/12/16 03:49:31;;;;;;;10.33;9.13;;;;;;;0.77;100.00;97900.50;6207790;23;20209;-82
2022/12/16 03:51:58;;;;;;;10.63;9.57;;;;;;;0.70;100.00;97907.56;6233183;23;20221;-81
2022/12/16 03:54:24;;;;;;;10.07;8.93;;;;;;;0.77;100.00;97911.06;6231348;23;20236;-81
2022/12/16 03:56:51;;;;;;;9.57;8.53;;;;;;;0.76;100.00;97916.50;6230376;23;20232;-82
2022/12/16 03:59:19;;;;;;;9.17;8.27;;;;;;;0.66;100.00;97916.06;6179454;23;20201;-82
2022/12/16 04:01:46;;;;;;;9.00;8.10;;;;;;;0.74;100.00;97910.66;6204412;23;20205;-81
2022/12/16 04:04:13;;;;;;;8.10;7.30;;;;;;;0.71;100.00;97905.75;6203200;23;20212;-79
2022/12/16 04:06:40;;;;;;;8.40;7.50;;;;;;;0.74;100.00;97919.38;6206837;23;20232;-79
2022/12/16 04:09:07;;;;;;;7.53;6.83;;;;;;;0.70;100.00;97907.56;6233683;23;20209;-81
2022/12/16 04:25:30;;;;;;;4.53;4.13;;;;;;;0.90;100.00;97868.06;6231375;23;20209;-81
2022/12/16 04:27:57;;;;;;;4.20;3.80;;;;;;;0.92;100.00;97867.88;6176643;23;20259;-81
2022/12/16 04:30:26;;;;;;;3.90;3.50;;;;;;;0.91;100.00;97858.34;6224425;23;20281;-81
